Time;durP1;ratioP1;P1;durP2;ratioP2;P2;SDS_P1;SDS_P2;PMS_P1;PMS_P2;Temp;Humidity;BMP_temperature;BMP_pressure;BME280_temperature;BME280_humidity;BME280_pressure;Samples;Min_cycle;Max_cycle;Signal;HPM_P1;HPM_P2
2023/07/01 00:00:20;;;;;;;5.25;2.25;;;;;;;;;;4980246;28;20091;-85
2023/07/01 00:02:48;;;;;;;4.88;2.00;;;;;;;;;;5001719;28;20041;-85
2023/07/01 00:05:15;;;;;;;4.43;2.28;;;;;;;;;;4996675;28;20376;-85
2023/07/01 00:07:41;;;;;;;8.63;2.22;;;;;;;;;;4986130;28;20041;-85
2023/07/01 00:10:07;;;;;;;3.75;1.90;;;;;;;;;;5011209;28;20048;-85
2023/07/01 00:12:33;;;;;;;6.97;2.40;;;;;;;;;;5001390;28;20427;-85
2023/07/01 00:14:59;;;;;;;5.78;2.30;;;;;;;;;;4989495;28;20085;-85
2023/07/01 00:17:25;;;;;;;7.18;2.10;;;;;;;;;;4992041;28;20121;-85
2023/07/01 00:19:51;;;;;;;6.00;2.55;;;;;;;;;;4994202;28;20063;-85
2023/07/01 00:22:17;;;;;;;4.75;2.20;;;;;;;;;;4998336;28;20033;-85
2023/07/01 00:24:43;;;;;;;4.72;2.05;;;;;;;;;;5012791;28;20132;-85
2023/07/01 00:27:09;;;;;;;8.23;2.45;;;;;;;;;;4980997;28;20052;-85
2023/07/01 00:29:36;;;;;;;3.55;1.98;;;;;;;;;;5011196;28;20073;-85
2023/07/01 00:32:02;;;;;;;7.07;2.40;;;;;;;;;;4990675;28;20044;-85
2023/07/01 00:34:28;;;;;;;5.32;2.22;;;;;;;;;;4994501;28;20037;-85
2023/07/01 00:36:54;;;;;;;6.13;2.10;;;;;;;;;;4998576;28;20041;-85
2023/07/01 00:39:20;;;;;;;5.22;2.05;;;;;;;;;;5013872;28;20045;-85
2023/07/01 00:41:52;;;;;;;4.95;2.20;;;;;;;;;;4992573;28;20044;-85
2023/07/01 00:44:18;;;;;;;6.50;2.20;;;;;;;;;;5011827;28;20049;-85
2023/07/01 00:46:44;;;;;;;4.50;2.10;;;;;;;;;;5029850;28;20041;-85
2023/07/01 00:49:10;;;;;;;4.57;2.15;;;;;;;;;;5009235;28;20364;-85
2023/07/01 00:51:36;;;;;;;6.05;2.22;;;;;;;;;;4994535;28;20049;-85
2023/07/01 00:54:02;;;;;;;6.93;2.00;;;;;;;;;;5005851;28;20050;-85
2023/07/01 00:56:28;;;;;;;7.57;2.30;;;;;;;;;;5015584;28;20087;-85
2023/07/01 00:58:54;;;;;;;5.13;2.10;;;;;;;;;;4990646;28;20048;-85
2023/07/01 01:01:22;;;;;;;7.13;2.13;;;;;;;;;;4999768;28;20482;-85
2023/07/01 01:03:54;;;;;;;5.37;2.50;;;;;;;;;;5015887;28;21580;-85
2023/07/01 01:06:21;;;;;;;3.95;1.90;;;;;;;;;;5002857;28;20056;-85
2023/07/01 01:09:10;;;;;;;7.50;2.47;;;;;;;;;;4996575;28;20053;-85
2023/07/01 01:11:36;;;;;;;6.00;2.38;;;;;;;;;;5020150;28;20045;-85
2023/07/01 01:14:03;;;;;;;4.18;2.10;;;;;;;;;;5003574;28;20124;-85
2023/07/01 01:16:29;;;;;;;5.82;2.35;;;;;;;;;;4993275;28;20046;-85
2023/07/01 01:18:55;;;;;;;6.30;2.53;;;;;;;;;;4992672;28;20033;-85
2023/07/01 01:21:21;;;;;;;8.15;2.42;;;;;;;;;;4998189;28;20049;-85
2023/07/01 01:23:51;;;;;;;6.35;2.58;;;;;;;;;;4978866;28;20042;-85
2023/07/01 01:26:22;;;;;;;7.55;2.58;;;;;;;;;;4994022;28;20107;-85
2023/07/01 01:28:49;;;;;;;5.32;2.47;;;;;;;;;;4985767;28;20049;-85
2023/07/01 01:31:15;;;;;;;6.38;2.45;;;;;;;;;;5011507;28;20393;-85
2023/07/01 01:33:41;;;;;;;10.75;2.63;;;;;;;;;;4994774;28;20370;-85
2023/07/01 01:36:15;;;;;;;7.53;2.60;;;;;;;;;;5012579;28;20047;-85
2023/07/01 01:38:41;;;;;;;8.05;2.38;;;;;;;;;;4995407;28;20121;-85
2023/07/01 01:41:11;;;;;;;11.52;2.40;;;;;;;;;;5003500;28;20042;-85
2023/07/01 01:43:50;;;;;;;6.68;2.50;;;;;;;;;;5012213;28;20483;-85
2023/07/01 01:46:16;;;;;;;5.13;2.30;;;;;;;;;;5013086;28;20041;-85
2023/07/01 01:48:43;;;;;;;6.07;2.40;;;;;;;;;;4996112;28;20394;-85
2023/07/01 01:51:09;;;;;;;9.15;2.88;;;;;;;;;;5013811;28;23010;-85
2023/07/01 01:53:36;;;;;;;6.20;2.88;;;;;;;;;;4993475;28;20506;-85
2023/07/01 01:56:02;;;;;;;7.25;2.67;;;;;;;;;;5006786;28;20489;-85
2023/07/01 01:58:28;;;;;;;7.13;2.65;;;;;;;;;;4981289;28;20180;-85
2023/07/01 02:00:55;;;;;;;6.65;2.70;;;;;;;;;;4993049;28;20095;-85
2023/07/01 02:03:21;;;;;;;7.18;2.47;;;;;;;;;;4990887;28;20494;-85
2023/07/01 02:05:47;;;;;;;9.25;3.40;;;;;;;;;;5012119;28;20065;-85
2023/07/01 02:08:14;;;;;;;6.30;2.50;;;;;;;;;;4997655;28;20042;-86
2023/07/01 02:10:40;;;;;;;5.65;2.72;;;;;;;;;;4994835;28;20191;-85
2023/07/01 02:13:06;;;;;;;8.50;3.25;;;;;;;;;;5008908;28;20106;-85
2023/07/01 02:15:32;;;;;;;7.18;3.70;;;;;;;;;;5010873;28;20155;-85
2023/07/01 02:17:58;;;;;;;5.70;3.17;;;;;;;;;;4994192;28;20447;-85
2023/07/01 02:20:24;;;;;;;5.72;3.28;;;;;;;;;;5032152;28;20065;-85
2023/07/01 02:22:50;;;;;;;8.88;3.40;;;;;;;;;;4986645;28;20651;-86
2023/07/01 02:25:17;;;;;;;7.35;3.75;;;;;;;;;;5012661;28;20051;-85
2023/07/01 02:27:43;;;;;;;9.43;3.53;;;;;;;;;;4996640;28;20049;-85
2023/07/01 02:30:09;;;;;;;10.32;3.72;;;;;;;;;;4969735;28;21413;-85
2023/07/01 02:32:35;;;;;;;6.57;3.28;;;;;;;;;;4982410;28;20049;-85
2023/07/01 02:35:01;;;;;;;7.20;3.72;;;;;;;;;;4993396;28;20045;-85
2023/07/01 02:37:28;;;;;;;5.15;3.13;;;;;;;;;;4998635;28;20041;-85
2023/07/01 02:39:54;;;;;;;7.72;3.60;;;;;;;;;;5008714;28;20045;-85
2023/07/01 02:42:21;;;;;;;5.88;3.65;;;;;;;;;;4978504;28;20042;-85
2023/07/01 02:44:47;;;;;;;6.45;3.10;;;;;;;;;;4981399;28;20096;-85
2023/07/01 02:47:15;;;;;;;5.30;3.40;;;;;;;;;;4999241;28;20049;-85
2023/07/01 02:49:41;;;;;;;5.68;3.40;;;;;;;;;;4979102;28;20045;-85
2023/07/01 02:52:10;;;;;;;7.00;3.00;;;;;;;;;;4989993;28;20100;-85
2023/07/01 02:54:39;;;;;;;4.03;2.70;;;;;;;;;;4995064;28;20057;-85
2023/07/01 02:57:08;;;;;;;6.00;3.17;;;;;;;;;;4968295;28;20474;-85
2023/07/01 02:59:35;;;;;;;4.75;3.15;;;;;;;;;;4986327;28;20042;-85
2023/07/01 03:02:01;;;;;;;6.93;2.90;;;;;;;;;;5006205;28;20037;-85
2023/07/01 03:04:27;;;;;;;7.13;3.20;;;;;;;;;;5020570;28;20037;-85
2023/07/01 03:06:53;;;;;;;6.10;3.28;;;;;;;;;;4997795;28;20140;-85
2023/07/01 03:09:19;;;;;;;7.95;3.53;;;;;;;;;;5012830;28;20049;-85
2023/07/01 03:11:46;;;;;;;4.88;3.15;;;;;;;;;;5003589;28;20037;-85
2023/07/01 03:14:12;;;;;;;3.63;2.70;;;;;;;;;;5011567;28;20394;-85
2023/07/01 03:16:41;;;;;;;6.03;2.78;;;;;;;;;;5004295;28;20128;-85
2023/07/01 03:19:07;;;;;;;9.02;3.00;;;;;;;;;;5010225;28;20122;-85
2023/07/01 03:21:34;;;;;;;7.47;3.28;;;;;;;;;;5012685;28;20159;-85
2023/07/01 03:24:00;;;;;;;6.50;3.30;;;;;;;;;;4974144;28;20057;-85
2023/07/01 03:26:27;;;;;;;4.05;3.13;;;;;;;;;;5016835;28;20041;-85
2023/07/01 03:28:55;;;;;;;4.38;2.55;;;;;;;;;;4975940;28;20041;-85
2023/07/01 03:31:21;;;;;;;5.13;3.15;;;;;;;;;;4993797;28;20046;-85
2023/07/01 03:33:50;;;;;;;7.13;3.03;;;;;;;;;;4999145;28;20470;-85
2023/07/01 03:36:16;;;;;;;4.28;2.90;;;;;;;;;;4997652;28;20065;-85
2023/07/01 03:38:43;;;;;;;5.38;3.13;;;;;;;;;;4996586;28;20111;-85
2023/07/01 03:41:09;;;;;;;8.07;3.22;;;;;;;;;;4991296;28;22324;-85
2023/07/01 03:43:35;;;;;;;5.40;3.55;;;;;;;;;;4999685;28;20040;-85
2023/07/01 03:46:01;;;;;;;6.22;3.40;;;;;;;;;;4979362;28;20064;-84
2023/07/01 03:48:27;;;;;;;9.77;4.03;;;;;;;;;;4995692;28;20042;-84
2023/07/01 03:50:53;;;;;;;6.03;3.78;;;;;;;;;;4993579;28;20121;-85
2023/07/01 03:53:19;;;;;;;7.03;3.50;;;;;;;;;;4984568;28;20486;-85
2023/07/01 03:55:46;;;;;;;4.28;3.20;;;;;;;;;;4999527;28;20103;-84
2023/07/01 03:58:21;;;;;;;6.95;3.53;;;;;;;;;;5008500;28;20076;-85
2023/07/01 04:00:50;;;;;;;6.85;3.55;;;;;;;;;;5011244;28;20041;-84
2023/07/01 04:03:16;;;;;;;7.30;4.07;;;;;;;;;;5011154;28;20029;-84
2023/07/01 04:05:42;;;;;;;6.47;3.85;;;;;;;;;;5018904;28;20049;-85
2023/07/01 04:08:08;;;;;;;4.22;3.20;;;;;;;;;;5016115;28;21562;-85
2023/07/01 04:10:34;;;;;;;6.22;3.85;;;;;;;;;;5018076;28;20045;-85
2023/07/01 04:13:01;;;;;;;6.32;3.65;;;;;;;;;;5010508;28;20044;-85
2023/07/01 04:15:27;;;;;;;4.25;3.30;;;;;;;;;;5025467;28;20045;-85
2023/07/01 04:17:54;;;;;;;6.70;3.50;;;;;;;;;;5005870;28;20038;-84
2023/07/01 04:20:20;;;;;;;4.15;3.10;;;;;;;;;;4996424;28;20099;-85
2023/07/01 04:22:46;;;;;;;6.28;3.55;;;;;;;;;;5017950;28;20045;-84
2023/07/01 04:25:12;;;;;;;5.57;3.50;;;;;;;;;;5005065;28;20058;-84
2023/07/01 04:27:38;;;;;;;6.43;3.72;;;;;;;;;;4993987;28;20049;-85
2023/07/01 04:30:06;;;;;;;5.22;3.90;;;;;;;;;;4992276;28;20037;-85
2023/07/01 04:32:32;;;;;;;6.53;4.05;;;;;;;;;;5000057;28;20068;-84
2023/07/01 04:34:58;;;;;;;5.45;3.50;;;;;;;;;;4992256;28;20088;-84
2023/07/01 04:37:25;;;;;;;5.60;3.53;;;;;;;;;;5027379;28;20041;-84
2023/07/01 04:39:51;;;;;;;4.93;3.53;;;;;;;;;;5020615;28;20486;-85
2023/07/01 04:42:18;;;;;;;6.18;3.67;;;;;;;;;;5020261;28;20536;-84
2023/07/01 04:44:44;;;;;;;5.32;3.20;;;;;;;;;;4975620;28;20510;-84
2023/07/01 04:47:10;;;;;;;7.90;3.45;;;;;;;;;;4992955;28;20048;-84
2023/07/01 04:49:36;;;;;;;5.28;3.17;;;;;;;;;;4994117;28;20099;-84
2023/07/01 04:52:02;;;;;;;6.25;3.28;;;;;;;;;;4989729;28;20119;-84
2023/07/01 04:54:28;;;;;;;6.57;3.95;;;;;;;;;;5012385;28;20506;-85
2023/07/01 04:56:54;;;;;;;6.07;3.63;;;;;;;;;;4969882;28;20076;-84
2023/07/01 04:59:20;;;;;;;7.25;3.45;;;;;;;;;;4997210;28;20041;-84
2023/07/01 05:01:46;;;;;;;6.32;3.33;;;;;;;;;;4994645;28;20164;-84
2023/07/01 05:04:12;;;;;;;4.13;3.35;;;;;;;;;;4990318;28;20088;-84
2023/07/01 05:06:38;;;;;;;4.65;3.53;;;;;;;;;;4999370;28;20046;-84
2023/07/01 05:09:05;;;;;;;4.93;3.63;;;;;;;;;;4990416;28;20050;-84
2023/07/01 05:11:31;;;;;;;5.03;3.63;;;;;;;;;;4994277;28;20048;-84
2023/07/01 05:13:57;;;;;;;5.55;3.92;;;;;;;;;;4992463;28;20057;-84
2023/07/01 05:16:23;;;;;;;4.93;3.45;;;;;;;;;;4996296;28;20121;-85
2023/07/01 05:18:50;;;;;;;4.30;3.42;;;;;;;;;;4989829;28;20044;-84
2023/07/01 05:21:17;;;;;;;5.03;3.58;;;;;;;;;;4979253;28;20037;-84
2023/07/01 05:23:43;;;;;;;5.47;3.60;;;;;;;;;;5018146;28;20033;-84
2023/07/01 05:26:09;;;;;;;6.43;3.75;;;;;;;;;;5007334;28;21258;-84
2023/07/01 05:28:35;;;;;;;8.65;3.80;;;;;;;;;;5010159;28;20041;-85
2023/07/01 05:31:01;;;;;;;7.90;4.10;;;;;;;;;;4970611;28;20042;-85
2023/07/01 05:33:27;;;;;;;5.30;3.40;;;;;;;;;;4991961;28;20490;-84
2023/07/01 05:35:53;;;;;;;5.35;3.53;;;;;;;;;;4975360;28;20039;-84
2023/07/01 05:38:19;;;;;;;5.82;3.50;;;;;;;;;;4992217;28;20072;-85
2023/07/01 05:40:45;;;;;;;4.70;3.47;;;;;;;;;;5018707;28;20065;-85
2023/07/01 05:43:11;;;;;;;4.20;3.42;;;;;;;;;;4991023;28;20041;-85
2023/07/01 05:45:37;;;;;;;4.63;3.05;;;;;;;;;;5016385;28;20049;-84
2023/07/01 05:48:03;;;;;;;6.57;3.42;;;;;;;;;;5005653;28;20440;-84
2023/07/01 05:50:29;;;;;;;4.28;3.70;;;;;;;;;;4981179;28;20046;-84
2023/07/01 05:52:55;;;;;;;6.68;3.72;;;;;;;;;;4980014;28;20033;-85
2023/07/01 05:55:22;;;;;;;6.53;3.72;;;;;;;;;;4979130;28;20041;-85
2023/07/01 05:57:48;;;;;;;5.15;3.78;;;;;;;;;;4998523;28;20045;-85
2023/07/01 06:00:14;;;;;;;7.10;3.72;;;;;;;;;;4982994;28;20081;-84
2023/07/01 06:02:41;;;;;;;5.50;3.78;;;;;;;;;;4996572;28;20441;-84
2023/07/01 06:05:07;;;;;;;5.47;3.90;;;;;;;;;;4993277;28;20045;-85
2023/07/01 06:07:33;;;;;;;5.70;3.97;;;;;;;;;;4997177;28;20054;-85
2023/07/01 06:09:59;;;;;;;5.95;3.75;;;;;;;;;;4958112;28;20077;-84
2023/07/01 06:12:25;;;;;;;5.13;3.70;;;;;;;;;;4979749;28;20056;-85
2023/07/01 06:14:51;;;;;;;6.60;3.40;;;;;;;;;;4956157;28;20045;-85
2023/07/01 06:17:17;;;;;;;5.55;3.80;;;;;;;;;;4993746;28;20634;-85
2023/07/01 06:19:43;;;;;;;8.38;4.13;;;;;;;;;;4972973;28;20480;-84
2023/07/01 06:22:09;;;;;;;7.57;4.22;;;;;;;;;;4992812;28;20042;-84
2023/07/01 06:24:36;;;;;;;5.50;4.22;;;;;;;;;;4989318;28;20475;-84
2023/07/01 06:27:02;;;;;;;6.50;3.92;;;;;;;;;;4968285;28;20038;-84
2023/07/01 06:29:28;;;;;;;6.90;4.28;;;;;;;;;;4993085;28;20065;-84
2023/07/01 06:31:54;;;;;;;6.55;4.20;;;;;;;;;;4989115;28;20499;-85
2023/07/01 06:34:20;;;;;;;6.82;4.47;;;;;;;;;;4990421;28;20560;-85
2023/07/01 06:36:46;;;;;;;7.45;4.53;;;;;;;;;;4992898;28;20578;-84
2023/07/01 06:39:12;;;;;;;5.93;4.45;;;;;;;;;;4979905;28;20449;-85
2023/07/01 06:41:39;;;;;;;5.38;4.65;;;;;;;;;;4997444;28;20038;-84
2023/07/01 06:44:05;;;;;;;5.38;4.40;;;;;;;;;;4987415;28;20054;-85
2023/07/01 06:46:31;;;;;;;6.00;5.30;;;;;;;;;;4991227;28;20044;-85
2023/07/01 06:48:57;;;;;;;5.68;5.18;;;;;;;;;;4977794;28;20088;-85
2023/07/01 06:51:23;;;;;;;5.85;5.25;;;;;;;;;;5001435;28;20042;-85
2023/07/01 06:53:49;;;;;;;5.95;5.45;;;;;;;;;;4975685;28;20054;-84
2023/07/01 06:56:15;;;;;;;7.47;6.63;;;;;;;;;;4962999;28;20044;-85
2023/07/01 06:58:41;;;;;;;6.55;5.75;;;;;;;;;;4984554;28;20048;-85
2023/07/01 07:01:07;;;;;;;6.60;5.70;;;;;;;;;;4960194;28;20108;-85
2023/07/01 07:03:33;;;;;;;6.40;5.38;;;;;;;;;;4981654;28;20034;-85
2023/07/01 07:06:00;;;;;;;7.10;5.38;;;;;;;;;;4995482;28;20073;-85
2023/07/01 07:08:26;;;;;;;6.30;5.53;;;;;;;;;;5013861;28;21218;-85
2023/07/01 07:10:52;;;;;;;6.90;6.30;;;;;;;;;;4992123;28;20041;-85
2023/07/01 07:13:18;;;;;;;6.85;6.18;;;;;;;;;;4995324;28;20041;-85
2023/07/01 07:15:44;;;;;;;7.18;6.45;;;;;;;;;;5016797;28;20498;-85
2023/07/01 07:18:11;;;;;;;7.43;5.90;;;;;;;;;;4976762;28;20119;-85
2023/07/01 07:20:38;;;;;;;6.57;5.97;;;;;;;;;;5017735;28;20052;-85
2023/07/01 07:23:06;;;;;;;6.47;5.85;;;;;;;;;;4989251;28;20065;-85
2023/07/01 07:25:32;;;;;;;7.88;6.22;;;;;;;;;;5025495;28;20060;-85
2023/07/01 07:27:58;;;;;;;6.75;5.60;;;;;;;;;;4989816;28;20095;-84
2023/07/01 07:30:24;;;;;;;6.68;5.97;;;;;;;;;;5000763;28;20045;-85
2023/07/01 07:32:50;;;;;;;6.40;5.80;;;;;;;;;;4997801;28;20086;-85
2023/07/01 07:35:16;;;;;;;7.32;6.40;;;;;;;;;;5001030;28;20102;-84
2023/07/01 07:37:42;;;;;;;7.13;5.57;;;;;;;;;;4998094;28;20492;-85
2023/07/01 07:40:09;;;;;;;6.28;5.53;;;;;;;;;;4978105;28;22134;-84
2023/07/01 07:42:35;;;;;;;6.95;5.90;;;;;;;;;;5017791;28;20045;-84
2023/07/01 07:45:02;;;;;;;6.70;5.45;;;;;;;;;;5009897;28;20391;-85
2023/07/01 07:47:28;;;;;;;6.00;5.50;;;;;;;;;;4992144;28;20045;-85
2023/07/01 07:49:54;;;;;;;6.43;5.85;;;;;;;;;;4990122;28;20071;-87
2023/07/01 07:52:20;;;;;;;6.45;5.85;;;;;;;;;;4996489;28;20363;-86
2023/07/01 07:54:46;;;;;;;6.63;6.03;;;;;;;;;;4976965;28;20418;-86
2023/07/01 07:57:13;;;;;;;6.65;6.05;;;;;;;;;;4985471;28;20041;-87
2023/07/01 07:59:43;;;;;;;7.57;6.88;;;;;;;;;;4997637;28;20578;-86
2023/07/01 08:02:09;;;;;;;7.82;5.97;;;;;;;;;;4988227;28;20683;-87
2023/07/01 08:04:38;;;;;;;6.85;6.25;;;;;;;;;;4992941;28;20065;-86
2023/07/01 08:07:04;;;;;;;6.78;6.18;;;;;;;;;;4972925;28;20164;-86
2023/07/01 08:09:31;;;;;;;7.68;6.45;;;;;;;;;;5008679;28;20045;-86
2023/07/01 08:12:00;;;;;;;8.88;6.57;;;;;;;;;;5008333;28;20494;-85
2023/07/01 08:14:26;;;;;;;6.53;5.88;;;;;;;;;;5010951;28;20392;-86
2023/07/01 08:16:55;;;;;;;6.57;6.00;;;;;;;;;;4990625;28;20492;-86
2023/07/01 08:19:21;;;;;;;8.07;6.25;;;;;;;;;;4982061;28;20044;-86
2023/07/01 08:21:47;;;;;;;546.47;77.25;;;;;;;;;;4999149;28;21018;-87
2023/07/01 08:24:14;;;;;;;18.13;7.00;;;;;;;;;;4993927;28;20051;-86
2023/07/01 08:26:40;;;;;;;7.88;6.63;;;;;;;;;;5008858;28;20081;-86
2023/07/01 08:29:07;;;;;;;11.77;7.07;;;;;;;;;;4984585;28;20726;-86
2023/07/01 08:31:33;;;;;;;8.75;6.40;;;;;;;;;;4995158;28;20052;-86
2023/07/01 08:33:59;;;;;;;10.23;7.30;;;;;;;;;;4975920;28;20118;-86
2023/07/01 08:36:25;;;;;;;7.15;6.45;;;;;;;;;;4974420;28;20432;-86
2023/07/01 08:38:52;;;;;;;8.70;7.25;;;;;;;;;;4991683;28;20034;-87
2023/07/01 08:41:18;;;;;;;7.10;6.50;;;;;;;;;;5001517;28;20045;-85
2023/07/01 08:43:51;;;;;;;7.85;6.03;;;;;;;;;;4976379;28;20045;-87
2023/07/01 08:46:19;;;;;;;7.63;6.28;;;;;;;;;;5000598;28;20041;-86
2023/07/01 08:48:45;;;;;;;7.75;5.80;;;;;;;;;;4984562;28;20091;-86
2023/07/01 08:51:26;;;;;;;6.45;5.85;;;;;;;;;;5002768;28;20494;-87
2023/07/01 08:53:52;;;;;;;7.88;6.40;;;;;;;;;;4998372;28;20087;-86
2023/07/01 08:56:19;;;;;;;7.20;6.47;;;;;;;;;;5014068;28;20073;-86
2023/07/01 08:58:45;;;;;;;7.40;6.70;;;;;;;;;;4995267;28;20046;-86
2023/07/01 09:01:11;;;;;;;6.82;6.32;;;;;;;;;;4991863;28;20398;-86
2023/07/01 09:03:37;;;;;;;7.45;6.47;;;;;;;;;;5021436;28;20036;-86
2023/07/01 09:06:05;;;;;;;7.65;6.65;;;;;;;;;;5015753;28;20053;-87
2023/07/01 09:08:40;;;;;;;7.35;6.70;;;;;;;;;;4984071;28;20127;-86
2023/07/01 09:11:07;;;;;;;7.47;6.60;;;;;;;;;;5001250;28;20040;-86
2023/07/01 09:13:33;;;;;;;6.70;6.20;;;;;;;;;;5030270;28;20036;-87
2023/07/01 09:15:59;;;;;;;9.07;7.68;;;;;;;;;;5025005;28;20049;-86
2023/07/01 09:18:26;;;;;;;6.93;5.95;;;;;;;;;;5015305;28;20375;-86
2023/07/01 09:20:52;;;;;;;7.07;6.47;;;;;;;;;;5010038;28;20044;-87
2023/07/01 09:23:45;;;;;;;6.00;5.50;;;;;;;;;;4994478;28;20048;-86
2023/07/01 09:26:15;;;;;;;6.75;5.68;;;;;;;;;;5020236;28;20055;-86
2023/07/01 09:28:45;;;;;;;7.10;6.30;;;;;;;;;;4993973;28;20037;-85
2023/07/01 09:31:12;;;;;;;6.85;6.35;;;;;;;;;;5004839;28;20057;-86
2023/07/01 09:33:41;;;;;;;6.93;6.18;;;;;;;;;;4997480;28;20040;-86
2023/07/01 09:36:09;;;;;;;5.75;5.25;;;;;;;;;;5003275;28;20047;-86
2023/07/01 09:38:51;;;;;;;7.05;6.30;;;;;;;;;;5011209;28;20048;-87
2023/07/01 09:41:25;;;;;;;8.00;7.18;;;;;;;;;;4995765;28;20422;-86
2023/07/01 09:43:51;;;;;;;7.53;6.80;;;;;;;;;;4990046;28;20068;-87
2023/07/01 09:46:17;;;;;;;8.18;6.55;;;;;;;;;;5009422;28;20065;-87
2023/07/01 09:48:53;;;;;;;6.78;6.18;;;;;;;;;;4994971;28;20129;-86
2023/07/01 09:51:20;;;;;;;7.07;6.47;;;;;;;;;;5011801;28;20225;-86
2023/07/01 09:53:46;;;;;;;5.72;5.22;;;;;;;;;;5009129;28;20120;-86
2023/07/01 09:56:14;;;;;;;7.00;6.35;;;;;;;;;;5001681;28;20041;-86
2023/07/01 09:58:40;;;;;;;6.65;6.07;;;;;;;;;;5006961;28;20167;-86
2023/07/01 10:01:06;;;;;;;6.10;5.60;;;;;;;;;;5008729;28;20051;-86
2023/07/01 10:03:32;;;;;;;6.07;5.57;;;;;;;;;;5013892;28;20075;-86
2023/07/01 10:05:58;;;;;;;6.05;5.55;;;;;;;;;;4993441;28;20081;-87
2023/07/01 10:08:24;;;;;;;6.30;5.57;;;;;;;;;;4976693;28;20379;-86
2023/07/01 10:10:58;;;;;;;6.70;6.10;;;;;;;;;;4985641;28;20107;-85
2023/07/01 10:13:24;;;;;;;6.28;5.68;;;;;;;;;;4981267;28;20045;-83
2023/07/01 10:15:50;;;;;;;5.97;5.47;;;;;;;;;;5008166;28;20049;-83
2023/07/01 10:18:21;;;;;;;5.88;5.35;;;;;;;;;;5010181;28;20041;-82
2023/07/01 10:20:47;;;;;;;7.72;6.65;;;;;;;;;;5010367;28;20038;-86
2023/07/01 10:23:13;;;;;;;7.15;6.47;;;;;;;;;;4997859;28;20045;-88
2023/07/01 10:25:39;;;;;;;7.20;6.47;;;;;;;;;;5033322;28;20410;-83
2023/07/01 10:28:06;;;;;;;7.07;6.53;;;;;;;;;;5010370;28;20183;-82
2023/07/01 10:30:44;;;;;;;7.05;6.43;;;;;;;;;;5012676;28;20041;-82
2023/07/01 10:33:35;;;;;;;7.55;6.95;;;;;;;;;;5013543;28;20128;-82
2023/07/01 10:36:02;;;;;;;7.57;6.88;;;;;;;;;;5002987;28;20152;-82
2023/07/01 10:38:30;;;;;;;7.32;6.72;;;;;;;;;;5002205;28;20099;-82
2023/07/01 10:40:56;;;;;;;;;;;;;;;;;;4976453;28;20042;-84
2023/07/01 10:43:22;;;;;;;7.93;7.15;;;;;;;;;;5031259;28;20270;-83
2023/07/01 10:46:03;;;;;;;7.88;7.18;;;;;;;;;;5014859;28;20483;-83
2023/07/01 10:48:29;;;;;;;8.02;7.22;;;;;;;;;;4981979;28;20042;-83
2023/07/01 10:51:02;;;;;;;7.35;6.65;;;;;;;;;;4993141;28;20041;-84
2023/07/01 10:53:29;;;;;;;7.50;6.80;;;;;;;;;;5015973;28;20129;-84
2023/07/01 10:56:09;;;;;;;7.53;6.72;;;;;;;;;;5008217;28;20051;-84
2023/07/01 10:58:35;;;;;;;7.75;7.13;;;;;;;;;;4997061;28;20065;-84
2023/07/01 11:01:01;;;;;;;7.32;6.72;;;;;;;;;;5006360;28;21238;-84
2023/07/01 11:03:34;;;;;;;7.82;7.13;;;;;;;;;;5021316;28;20123;-83
2023/07/01 11:06:00;;;;;;;8.90;7.07;;;;;;;;;;5001793;28;20057;-84
2023/07/01 11:08:27;;;;;;;8.45;7.63;;;;;;;;;;4981741;28;20105;-84
2023/07/01 11:10:53;;;;;;;7.40;6.80;;;;;;;;;;4971847;28;20482;-84
2023/07/01 11:13:19;;;;;;;8.45;7.63;;;;;;;;;;4962202;28;20045;-83
2023/07/01 11:16:04;;;;;;;8.82;7.20;;;;;;;;;;4981606;28;20046;-83
2023/07/01 11:18:40;;;;;;;9.07;7.22;;;;;;;;;;4964328;28;20044;-84
2023/07/01 11:21:06;;;;;;;8.32;7.38;;;;;;;;;;4973755;28;20042;-82
2023/07/01 11:23:32;;;;;;;8.40;7.60;;;;;;;;;;4978809;28;20094;-83
2023/07/01 11:25:58;;;;;;;7.07;6.47;;;;;;;;;;4955542;28;20100;-83
2023/07/01 11:28:31;;;;;;;8.15;7.35;;;;;;;;;;4977237;28;20057;-83
2023/07/01 11:31:08;;;;;;;7.85;7.05;;;;;;;;;;4975718;28;20521;-83
2023/07/01 11:33:34;;;;;;;8.07;7.37;;;;;;;;;;4978793;28;20054;-83
2023/07/01 11:36:00;;;;;;;8.63;7.72;;;;;;;;;;4986181;28;20515;-82
2023/07/01 11:38:27;;;;;;;7.50;6.38;;;;;;;;;;4998839;28;20517;-83
2023/07/01 11:40:53;;;;;;;8.45;7.65;;;;;;;;;;4974324;28;20046;-82
2023/07/01 11:43:21;;;;;;;7.97;7.18;;;;;;;;;;4980615;28;20466;-83
2023/07/01 11:45:50;;;;;;;;;;;;;;;;;;4980249;28;20050;-82
2023/07/01 11:48:16;;;;;;;7.70;6.90;;;;;;;;;;4996108;28;20428;-82
2023/07/01 11:50:52;;;;;;;7.88;7.07;;;;;;;;;;4983829;28;20038;-82
2023/07/01 11:53:18;;;;;;;7.32;6.57;;;;;;;;;;4997358;28;20046;-81
2023/07/01 11:55:44;;;;;;;7.40;6.68;;;;;;;;;;4994795;28;20664;-82
2023/07/01 11:58:29;;;;;;;7.57;6.88;;;;;;;;;;4991620;28;20563;-82
2023/07/01 12:00:55;;;;;;;7.13;6.53;;;;;;;;;;4954668;28;20045;-83
2023/07/01 12:03:21;;;;;;;8.93;6.45;;;;;;;;;;4976560;28;20037;-82
2023/07/01 12:05:51;;;;;;;7.25;6.65;;;;;;;;;;4981442;28;20140;-83
2023/07/01 12:08:17;;;;;;;6.10;5.60;;;;;;;;;;5017642;28;20094;-83
2023/07/01 12:10:43;;;;;;;5.63;5.20;;;;;;;;;;5017368;28;20073;-83
2023/07/01 12:13:09;;;;;;;5.80;5.30;;;;;;;;;;4996550;28;20140;-82
2023/07/01 12:15:51;;;;;;;5.22;4.82;;;;;;;;;;5011639;28;20076;-83
2023/07/01 12:18:27;;;;;;;4.03;3.45;;;;;;;;;;5018371;28;20477;-82
2023/07/01 12:20:53;;;;;;;4.65;4.25;;;;;;;;;;5010975;28;20124;-82
2023/07/01 12:23:19;;;;;;;4.72;4.32;;;;;;;;;;4982815;28;20044;-82
2023/07/01 12:25:46;;;;;;;5.00;4.60;;;;;;;;;;5016011;28;20485;-81
2023/07/01 12:28:12;;;;;;;5.60;4.28;;;;;;;;;;4971883;28;20128;-82
2023/07/01 12:30:38;;;;;;;4.80;4.32;;;;;;;;;;4983993;28;20037;-82
2023/07/01 12:33:04;;;;;;;5.00;4.55;;;;;;;;;;5015357;28;20048;-82
2023/07/01 12:35:30;;;;;;;5.13;4.63;;;;;;;;;;5012660;28;20048;-83
2023/07/01 12:37:58;;;;;;;4.47;4.07;;;;;;;;;;4998079;28;20115;-83
2023/07/01 12:40:27;;;;;;;4.20;3.80;;;;;;;;;;4985500;28;20073;-83
2023/07/01 12:42:53;;;;;;;3.92;3.60;;;;;;;;;;4993400;28;20437;-84
2023/07/01 12:45:19;;;;;;;4.57;3.90;;;;;;;;;;4980567;28;20041;-82
2023/07/01 12:47:45;;;;;;;4.35;3.95;;;;;;;;;;5032319;28;20151;-83
2023/07/01 12:50:12;;;;;;;5.47;4.13;;;;;;;;;;4975083;28;20386;-82
2023/07/01 12:52:38;;;;;;;5.85;4.15;;;;;;;;;;5012441;28;20402;-83
2023/07/01 12:55:13;;;;;;;4.85;4.00;;;;;;;;;;4985473;28;20052;-83
2023/07/01 12:57:39;;;;;;;5.05;3.83;;;;;;;;;;4975208;28;20498;-83
2023/07/01 13:00:06;;;;;;;4.57;4.18;;;;;;;;;;4990484;28;20549;-85
2023/07/01 13:02:35;;;;;;;4.40;4.00;;;;;;;;;;5019313;28;20048;-85
2023/07/01 13:05:01;;;;;;;7.97;4.30;;;;;;;;;;4998467;28;20819;-85
2023/07/01 13:07:28;;;;;;;4.75;4.30;;;;;;;;;;5005983;28;20068;-86
2023/07/01 13:09:54;;;;;;;4.47;4.07;;;;;;;;;;4971200;28;20059;-85
2023/07/01 13:12:23;;;;;;;5.00;4.60;;;;;;;;;;4978736;28;21486;-85
2023/07/01 13:14:51;;;;;;;5.50;4.60;;;;;;;;;;4983080;28;20048;-86
2023/07/01 13:17:44;;;;;;;5.07;4.68;;;;;;;;;;4995855;28;20070;-85
2023/07/01 13:20:10;;;;;;;5.72;5.13;;;;;;;;;;5003736;28;20044;-85
2023/07/01 13:22:36;;;;;;;5.90;5.25;;;;;;;;;;5017810;28;20048;-85
2023/07/01 13:25:02;;;;;;;6.38;5.78;;;;;;;;;;4994356;28;20052;-85
2023/07/01 13:27:29;;;;;;;5.63;5.10;;;;;;;;;;5022087;28;20489;-85
2023/07/01 13:29:55;;;;;;;7.00;5.63;;;;;;;;;;4979168;28;20044;-85
2023/07/01 13:32:22;;;;;;;6.47;5.88;;;;;;;;;;4985296;28;20048;-85
2023/07/01 13:34:51;;;;;;;6.82;5.20;;;;;;;;;;4998744;28;20124;-85
2023/07/01 13:37:18;;;;;;;5.55;4.50;;;;;;;;;;5011844;28;20049;-86
2023/07/01 13:39:45;;;;;;;5.60;4.78;;;;;;;;;;5044567;28;20367;-86
2023/07/01 13:42:11;;;;;;;8.20;4.60;;;;;;;;;;4992974;28;20068;-85
2023/07/01 13:44:38;;;;;;;5.57;4.45;;;;;;;;;;5039572;28;20040;-85
2023/07/01 13:47:05;;;;;;;4.15;3.75;;;;;;;;;;5020548;28;20053;-85
2023/07/01 13:49:31;;;;;;;3.90;3.60;;;;;;;;;;5039980;28;20041;-85
2023/07/01 13:51:57;;;;;;;5.38;3.78;;;;;;;;;;5008885;28;20072;-86
2023/07/01 13:54:25;;;;;;;5.43;3.65;;;;;;;;;;4989663;28;20083;-84
2023/07/01 13:56:51;;;;;;;6.15;4.20;;;;;;;;;;5007225;28;20041;-86
2023/07/01 13:59:17;;;;;;;7.90;4.32;;;;;;;;;;4983460;28;20037;-81
2023/07/01 14:01:59;;;;;;;4.40;4.00;;;;;;;;;;5026060;28;20504;-81
2023/07/01 14:04:25;;;;;;;6.18;4.65;;;;;;;;;;5010583;28;20037;-81
2023/07/01 14:06:52;;;;;;;5.50;4.30;;;;;;;;;;4995079;28;20139;-81
2023/07/01 14:09:22;;;;;;;5.07;4.60;;;;;;;;;;5033770;28;20052;-82
2023/07/01 14:11:48;;;;;;;5.00;4.50;;;;;;;;;;5033251;28;20047;-81
2023/07/01 14:14:19;;;;;;;4.90;4.50;;;;;;;;;;4974264;28;20048;-81
2023/07/01 14:16:46;;;;;;;4.28;3.80;;;;;;;;;;5013260;28;20048;-81
2023/07/01 14:19:13;;;;;;;4.78;4.10;;;;;;;;;;4992870;28;20050;-81
2023/07/01 14:21:39;;;;;;;4.55;3.95;;;;;;;;;;5009356;28;20052;-82
2023/07/01 14:24:05;;;;;;;4.45;3.63;;;;;;;;;;5008886;28;20045;-81
2023/07/01 14:26:38;;;;;;;5.40;3.90;;;;;;;;;;5031051;28;20026;-81
2023/07/01 14:29:04;;;;;;;4.50;4.07;;;;;;;;;;5026274;28;20171;-81
2023/07/01 14:31:31;;;;;;;4.78;4.00;;;;;;;;;;5025199;28;20389;-81
2023/07/01 14:34:01;;;;;;;4.40;4.00;;;;;;;;;;4992652;28;20489;-81
2023/07/01 14:36:28;;;;;;;4.93;4.43;;;;;;;;;;5018163;28;20036;-81
2023/07/01 14:38:54;;;;;;;5.45;3.90;;;;;;;;;;4977080;28;20041;-81
2023/07/01 14:41:21;;;;;;;7.20;3.45;;;;;;;;;;5015573;28;20045;-81
2023/07/01 14:43:51;;;;;;;4.77;3.20;;;;;;;;;;5001506;28;20052;-81